Hauptseite
METAR-TAF:

METAR-TAF

Flughäfen :

Gibraltar, Gibraltar

Flughafen Gibraltar

Breite: 36-09N, Länge: 005-21W, Höhe: 5 m

Beobachtung

Neuester Wetterbericht von vor 27 Minuten, um 04:50 UTC
Wind 1 kt aus West/Südwest
Temperatur 10°C
Luftfeuchtigkeit 93%
Luftdruck 1016 hPa
Sichtweite 10 km oder mehr
keine Wolken unter 1500 m und keine Kumulonimbus oder Gewitterwolken

METAR: LXGB 260450Z 25001KT CAVOK 10/09 Q1016

Zeit: 07:17 (05:17 UTC)

Prognose

Neuester Wetterbericht von vor 12 Stunden und 51 Minuten, um 16:26 UTC
Gültige Prognose vom 25 um 18 UTC bis 25 um 22 UTC
Wind 10 kt aus Südost
Sichtweite 10 km oder mehr
Leicht bewölkt in der Höhe von 4000 ft
Aufgelockert bewölkt in der Höhe von 6000 ft

TAF: LXGB 251626Z 2518/2522 13010KT 9999 FEW040 SCT060

Wetterbeobachtungen und Prognosen von mehr als 4000 Flughäfen (METAR und TAF Bericht).

Die verfügbaren Stationen werden durch gelbe und rote Markierungen auf der Karte dargestellt.

Führen Sie die Maus auf sie, um den Namen der Station zu sehen.

Darauf klicken, um die Beobachtung von Wetterbeobachtungen und Prognosen zu sehen.

Um die Karte zu ändern : klicken Sie auf den grünen Tasten mit einem schwarzen Kreuz Zum Vergrößern, auf den grünen Button mit einem Gedankenstrich zu verkleinern, oder auf die grünen Pfeile für benachbarte Karten.


METAR-TAF: